Time;durP1;ratioP1;P1;durP2;ratioP2;P2;SDS_P1;SDS_P2;PMS_P1;PMS_P2;Temp;Humidity;BMP_temperature;BMP_pressure;BME280_temperature;BME280_humidity;BME280_pressure;Samples;Min_cycle;Max_cycle;Signal;HPM_P1;HPM_P2
2024/01/06 00:02:25;;;;;;;302.93;165.93;;;;;;;;;;4400297;32;320234;-79
2024/01/06 00:04:54;;;;;;;321.27;166.17;;;;;;;;;;4411186;32;320640;-79
2024/01/06 00:07:21;;;;;;;302.30;165.23;;;;;;;;;;4400821;32;320334;-79
2024/01/06 00:09:47;;;;;;;303.97;163.70;;;;;;;;;;4403732;32;318970;-78
2024/01/06 00:12:14;;;;;;;286.33;160.40;;;;;;;;;;4408769;32;362144;-79
2024/01/06 00:14:43;;;;;;;312.43;163.10;;;;;;;;;;4400398;32;320225;-78
2024/01/06 00:17:12;;;;;;;301.80;163.00;;;;;;;;;;4410953;32;319898;-79
2024/01/06 00:19:39;;;;;;;313.63;163.80;;;;;;;;;;4391517;32;319861;-79
2024/01/06 00:22:10;;;;;;;298.97;159.87;;;;;;;;;;4410394;32;319968;-78
2024/01/06 00:24:38;;;;;;;285.50;156.53;;;;;;;;;;4397219;32;320350;-78
2024/01/06 00:27:06;;;;;;;292.67;158.47;;;;;;;;;;4408915;32;320265;-78
2024/01/06 00:29:36;;;;;;;296.90;157.63;;;;;;;;;;4393316;32;331222;-79
2024/01/06 00:32:04;;;;;;;307.57;165.80;;;;;;;;;;4409119;32;320160;-79
2024/01/06 00:34:31;;;;;;;296.63;161.30;;;;;;;;;;4399773;32;320395;-78
2024/01/06 00:36:58;;;;;;;295.57;158.43;;;;;;;;;;4406703;32;319310;-80
2024/01/06 00:39:27;;;;;;;286.50;157.33;;;;;;;;;;4401391;32;320025;-79
2024/01/06 00:41:54;;;;;;;289.33;160.53;;;;;;;;;;4403267;32;319586;-79
2024/01/06 00:44:21;;;;;;;286.77;158.10;;;;;;;;;;4401650;32;320063;-79
2024/01/06 00:46:47;;;;;;;289.43;160.73;;;;;;;;;;4412139;32;319850;-79
2024/01/06 00:49:14;;;;;;;291.73;159.73;;;;;;;;;;4412936;32;319882;-79
2024/01/06 00:51:42;;;;;;;288.20;159.60;;;;;;;;;;4396780;32;319889;-79
2024/01/06 00:54:09;;;;;;;297.57;159.97;;;;;;;;;;4412284;32;318760;-79
2024/01/06 00:56:39;;;;;;;315.13;168.33;;;;;;;;;;4401718;32;320030;-79
2024/01/06 00:59:08;;;;;;;303.00;162.40;;;;;;;;;;4412679;32;320353;-79
2024/01/06 01:01:35;;;;;;;284.90;156.27;;;;;;;;;;4395025;32;319963;-79
2024/01/06 01:04:01;;;;;;;303.70;164.30;;;;;;;;;;4407402;32;320181;-79
2024/01/06 01:06:29;;;;;;;285.07;161.50;;;;;;;;;;4402475;32;319972;-80
2024/01/06 01:08:59;;;;;;;279.50;157.67;;;;;;;;;;4411991;32;319792;-79
2024/01/06 01:11:26;;;;;;;275.43;148.90;;;;;;;;;;4395051;32;318674;-79
2024/01/06 01:13:54;;;;;;;277.37;152.40;;;;;;;;;;4410072;32;319710;-79
2024/01/06 01:16:21;;;;;;;273.13;152.53;;;;;;;;;;4400853;32;320007;-79
2024/01/06 01:18:48;;;;;;;291.73;161.20;;;;;;;;;;4408992;32;319319;-79
2024/01/06 01:21:15;;;;;;;289.27;163.03;;;;;;;;;;4408225;32;320054;-79
2024/01/06 01:23:44;;;;;;;274.03;144.83;;;;;;;;;;4394207;32;320454;-79
2024/01/06 01:26:12;;;;;;;282.23;152.37;;;;;;;;;;4409074;32;320443;-79
2024/01/06 01:28:40;;;;;;;285.60;154.10;;;;;;;;;;4389997;32;320447;-79
2024/01/06 01:31:08;;;;;;;309.80;162.00;;;;;;;;;;4409837;32;320279;-79
2024/01/06 01:33:35;;;;;;;309.13;158.07;;;;;;;;;;4386460;32;320568;-79
2024/01/06 01:36:03;;;;;;;284.07;147.07;;;;;;;;;;4409704;32;320365;-79
2024/01/06 01:38:31;;;;;;;275.10;135.33;;;;;;;;;;4387705;32;320712;-79
2024/01/06 01:40:59;;;;;;;241.93;117.43;;;;;;;;;;4394830;32;320738;-79
2024/01/06 01:43:28;;;;;;;227.17;108.27;;;;;;;;;;4378477;32;321206;-79
2024/01/06 01:45:56;;;;;;;206.67;100.30;;;;;;;;;;4399723;32;320531;-79
2024/01/06 01:48:28;;;;;;;182.60;90.73;;;;;;;;;;4400002;32;320303;-79
2024/01/06 01:50:55;;;;;;;189.73;90.10;;;;;;;;;;4408210;32;352731;-79
2024/01/06 01:53:23;;;;;;;189.90;91.70;;;;;;;;;;4399590;32;318580;-79
2024/01/06 01:55:51;;;;;;;208.13;97.20;;;;;;;;;;4406101;32;319528;-79
2024/01/06 01:58:18;;;;;;;199.73;92.03;;;;;;;;;;4395559;32;319620;-79
2024/01/06 02:00:46;;;;;;;193.50;96.20;;;;;;;;;;4410788;32;319317;-79
2024/01/06 02:03:14;;;;;;;189.70;93.23;;;;;;;;;;4411299;32;319565;-79
2024/01/06 02:05:43;;;;;;;172.00;90.07;;;;;;;;;;4393644;32;321020;-79
2024/01/06 02:08:09;;;;;;;187.93;88.70;;;;;;;;;;4407782;32;344836;-80
2024/01/06 02:10:36;;;;;;;167.00;84.70;;;;;;;;;;4399753;32;319913;-79
2024/01/06 02:13:09;;;;;;;171.57;88.63;;;;;;;;;;4408954;32;319239;-79
2024/01/06 02:15:37;;;;;;;157.37;85.33;;;;;;;;;;4386921;32;319426;-79
2024/01/06 02:18:06;;;;;;;170.97;82.70;;;;;;;;;;4391049;32;335941;-79
2024/01/06 02:20:33;;;;;;;172.67;85.00;;;;;;;;;;4382496;32;318797;-79
2024/01/06 02:23:01;;;;;;;179.63;88.27;;;;;;;;;;4395254;32;319308;-79
2024/01/06 02:25:29;;;;;;;164.47;86.50;;;;;;;;;;4378713;32;319202;-79
2024/01/06 02:27:57;;;;;;;160.50;83.00;;;;;;;;;;4393979;32;319240;-79
2024/01/06 02:30:23;;;;;;;157.03;83.33;;;;;;;;;;4384128;32;319285;-79
2024/01/06 02:32:50;;;;;;;151.93;82.47;;;;;;;;;;4396376;32;319414;-79
2024/01/06 02:35:18;;;;;;;157.33;85.60;;;;;;;;;;4395215;32;319336;-79
2024/01/06 02:37:47;;;;;;;156.53;88.07;;;;;;;;;;4373659;32;420045;-79
2024/01/06 02:40:18;;;;;;;170.07;90.30;;;;;;;;;;4372553;32;319221;-80
2024/01/06 02:42:47;;;;;;;163.27;86.27;;;;;;;;;;4380130;32;419946;-79
2024/01/06 02:45:14;;;;;;;163.57;85.83;;;;;;;;;;4396590;32;319055;-79
2024/01/06 02:47:41;;;;;;;189.30;95.63;;;;;;;;;;4378590;32;319362;-79
2024/01/06 02:50:09;;;;;;;176.77;91.47;;;;;;;;;;4393152;32;318807;-79
2024/01/06 02:52:36;;;;;;;182.37;96.23;;;;;;;;;;4386120;32;319344;-79
2024/01/06 02:55:03;;;;;;;175.50;94.47;;;;;;;;;;4398994;32;318708;-79
2024/01/06 02:57:32;;;;;;;187.07;96.47;;;;;;;;;;4384108;32;317681;-79
2024/01/06 02:59:58;;;;;;;173.00;91.50;;;;;;;;;;4403183;32;323591;-79
2024/01/06 03:02:25;;;;;;;186.40;93.47;;;;;;;;;;4397821;32;318811;-79
2024/01/06 03:04:54;;;;;;;179.93;96.50;;;;;;;;;;4409955;32;318538;-79
2024/01/06 03:07:21;;;;;;;183.83;89.47;;;;;;;;;;4397243;32;318925;-79
2024/01/06 03:09:48;;;;;;;183.10;91.13;;;;;;;;;;4403274;32;318604;-79
2024/01/06 03:12:15;;;;;;;170.93;88.67;;;;;;;;;;4406932;32;317594;-79
2024/01/06 03:14:43;;;;;;;178.67;90.83;;;;;;;;;;4393505;32;318951;-79
2024/01/06 03:17:10;;;;;;;169.50;92.43;;;;;;;;;;4397698;32;318725;-79
2024/01/06 03:19:37;;;;;;;168.63;90.63;;;;;;;;;;4376178;32;360884;-80
2024/01/06 03:22:04;;;;;;;186.67;94.13;;;;;;;;;;4396557;32;318793;-80
2024/01/06 03:24:31;;;;;;;178.77;92.90;;;;;;;;;;4386295;32;319175;-80
2024/01/06 03:26:58;;;;;;;147.53;85.00;;;;;;;;;;4396075;32;319239;-79
2024/01/06 03:29:26;;;;;;;149.80;83.60;;;;;;;;;;4377977;32;319390;-79
2024/01/06 03:31:55;;;;;;;137.73;75.77;;;;;;;;;;4391208;32;319163;-78
2024/01/06 03:34:24;;;;;;;141.07;74.60;;;;;;;;;;4386330;32;319224;-78
2024/01/06 03:36:52;;;;;;;149.87;75.13;;;;;;;;;;4393648;32;319284;-78
2024/01/06 03:39:20;;;;;;;120.23;72.87;;;;;;;;;;4385671;32;319070;-80
2024/01/06 03:41:49;;;;;;;127.00;71.03;;;;;;;;;;4386952;32;318501;-79
2024/01/06 03:44:20;;;;;;;122.53;69.93;;;;;;;;;;4395929;32;317746;-79
2024/01/06 03:46:47;;;;;;;141.57;81.63;;;;;;;;;;4383515;32;419755;-80
2024/01/06 03:49:18;;;;;;;124.37;73.50;;;;;;;;;;4393759;32;318702;-78
2024/01/06 03:51:46;;;;;;;134.37;77.10;;;;;;;;;;4375192;32;419535;-80
2024/01/06 03:54:15;;;;;;;139.60;76.80;;;;;;;;;;4396123;32;319116;-79
2024/01/06 03:56:45;;;;;;;139.27;76.70;;;;;;;;;;4385505;32;318651;-79
2024/01/06 03:59:12;;;;;;;145.43;76.43;;;;;;;;;;4395498;32;317927;-79
2024/01/06 04:01:40;;;;;;;130.40;70.87;;;;;;;;;;4379225;32;318575;-79
2024/01/06 04:04:08;;;;;;;134.20;74.30;;;;;;;;;;4395490;32;318980;-78
2024/01/06 04:06:36;;;;;;;133.87;71.77;;;;;;;;;;4385733;32;317613;-80
2024/01/06 04:09:03;;;;;;;132.13;70.40;;;;;;;;;;4395381;32;318985;-78
2024/01/06 04:11:32;;;;;;;119.70;69.43;;;;;;;;;;4379201;32;319360;-78
2024/01/06 04:14:00;;;;;;;117.70;70.83;;;;;;;;;;4395574;32;319018;-79
2024/01/06 04:16:27;;;;;;;122.10;67.70;;;;;;;;;;4376675;32;345809;-80
2024/01/06 04:18:55;;;;;;;128.43;67.47;;;;;;;;;;4383342;32;317539;-79
2024/01/06 04:21:22;;;;;;;115.87;70.57;;;;;;;;;;4374908;32;319192;-80
2024/01/06 04:23:52;;;;;;;120.70;72.03;;;;;;;;;;4395906;32;319216;-79
2024/01/06 04:26:23;;;;;;;121.27;69.67;;;;;;;;;;4381758;32;319068;-80
2024/01/06 04:28:53;;;;;;;124.73;66.20;;;;;;;;;;4395163;32;317798;-79
2024/01/06 04:31:20;;;;;;;121.17;70.57;;;;;;;;;;4383080;32;355475;-80
2024/01/06 04:33:48;;;;;;;117.07;65.60;;;;;;;;;;4394861;32;318571;-79
2024/01/06 04:36:16;;;;;;;113.97;69.33;;;;;;;;;;4383329;32;319421;-78
2024/01/06 04:38:42;;;;;;;118.63;67.30;;;;;;;;;;4387123;32;317536;-79
2024/01/06 04:41:13;;;;;;;110.60;62.97;;;;;;;;;;4386044;32;318786;-79
2024/01/06 04:43:40;;;;;;;109.87;63.97;;;;;;;;;;4393200;32;318881;-80
2024/01/06 04:46:06;;;;;;;93.83;58.83;;;;;;;;;;4395253;32;318788;-79
2024/01/06 04:48:33;;;;;;;106.03;61.97;;;;;;;;;;4378802;32;317520;-78
2024/01/06 04:51:03;;;;;;;113.30;67.30;;;;;;;;;;4394798;32;317524;-79
2024/01/06 04:53:31;;;;;;;104.17;61.43;;;;;;;;;;4384719;32;319182;-80
2024/01/06 04:55:57;;;;;;;102.07;58.97;;;;;;;;;;4397314;32;319109;-79
2024/01/06 04:58:27;;;;;;;97.17;61.13;;;;;;;;;;4377531;32;319226;-78
2024/01/06 05:00:55;;;;;;;103.50;61.70;;;;;;;;;;4396638;32;318185;-79
2024/01/06 05:03:21;;;;;;;108.73;62.77;;;;;;;;;;4386129;32;319185;-79
2024/01/06 05:05:48;;;;;;;105.37;64.83;;;;;;;;;;4394837;32;319296;-79
2024/01/06 05:08:15;;;;;;;105.63;63.20;;;;;;;;;;4386546;32;319154;-79
2024/01/06 05:10:44;;;;;;;108.93;59.90;;;;;;;;;;4385667;32;318939;-78
2024/01/06 05:13:10;;;;;;;101.70;59.00;;;;;;;;;;4384326;32;318297;-79
2024/01/06 05:15:40;;;;;;;110.30;64.07;;;;;;;;;;4391061;32;319115;-80
2024/01/06 05:18:08;;;;;;;109.10;62.27;;;;;;;;;;4397424;32;317486;-80
2024/01/06 05:20:35;;;;;;;104.10;62.03;;;;;;;;;;4381023;32;319400;-81
2024/01/06 05:23:01;;;;;;;116.10;62.23;;;;;;;;;;4393445;32;317607;-79
2024/01/06 05:25:29;;;;;;;121.00;67.33;;;;;;;;;;4388773;32;319267;-80
2024/01/06 05:27:58;;;;;;;118.83;66.60;;;;;;;;;;4395508;32;319367;-79
2024/01/06 05:30:25;;;;;;;121.63;69.30;;;;;;;;;;4375913;32;318789;-80
2024/01/06 05:32:55;;;;;;;107.23;62.03;;;;;;;;;;4391312;32;317427;-79
2024/01/06 05:35:23;;;;;;;92.40;55.37;;;;;;;;;;4382841;32;319272;-78
2024/01/06 05:37:49;;;;;;;95.63;57.27;;;;;;;;;;4393905;32;318286;-80
2024/01/06 05:40:18;;;;;;;115.10;66.03;;;;;;;;;;4383128;32;317712;-79
2024/01/06 05:42:45;;;;;;;105.73;62.77;;;;;;;;;;4388300;32;319272;-79
2024/01/06 05:45:13;;;;;;;107.43;60.67;;;;;;;;;;4386982;32;319225;-79
2024/01/06 05:47:41;;;;;;;97.83;56.73;;;;;;;;;;4390031;32;318866;-80
2024/01/06 05:50:11;;;;;;;95.90;57.53;;;;;;;;;;4385250;32;318009;-79
2024/01/06 05:52:38;;;;;;;110.10;59.47;;;;;;;;;;4373161;32;418746;-79
2024/01/06 05:55:06;;;;;;;119.77;67.80;;;;;;;;;;4393675;32;319297;-79
2024/01/06 05:57:34;;;;;;;119.03;70.00;;;;;;;;;;4384958;32;319466;-79
2024/01/06 06:00:03;;;;;;;124.87;74.27;;;;;;;;;;4397024;32;319316;-80
2024/01/06 06:02:31;;;;;;;138.57;81.83;;;;;;;;;;4381140;32;318990;-78
2024/01/06 06:04:59;;;;;;;142.40;81.20;;;;;;;;;;4392557;32;318723;-78
2024/01/06 06:07:31;;;;;;;137.40;78.80;;;;;;;;;;4381739;32;319271;-79
2024/01/06 06:09:57;;;;;;;157.33;87.93;;;;;;;;;;4402911;32;318399;-79
2024/01/06 06:12:26;;;;;;;183.87;103.30;;;;;;;;;;4391266;32;318102;-79
2024/01/06 06:14:55;;;;;;;208.20;106.20;;;;;;;;;;4408644;32;320114;-79
2024/01/06 06:17:24;;;;;;;187.27;103.70;;;;;;;;;;4392001;32;320217;-79
2024/01/06 06:19:50;;;;;;;210.13;118.77;;;;;;;;;;4393716;32;320380;-79
2024/01/06 06:22:19;;;;;;;223.43;125.93;;;;;;;;;;4381809;32;320056;-79
2024/01/06 06:24:48;;;;;;;196.60;114.87;;;;;;;;;;4395236;32;319756;-79
2024/01/06 06:27:15;;;;;;;200.10;118.77;;;;;;;;;;4399685;32;320753;-80
2024/01/06 06:29:42;;;;;;;193.13;109.93;;;;;;;;;;4411602;32;320525;-79
2024/01/06 06:32:09;;;;;;;184.03;105.87;;;;;;;;;;4394617;32;319538;-79
2024/01/06 06:34:37;;;;;;;176.83;98.90;;;;;;;;;;4379038;32;421030;-79
2024/01/06 06:37:05;;;;;;;148.50;90.93;;;;;;;;;;4397025;32;319427;-79
2024/01/06 06:39:33;;;;;;;169.10;98.13;;;;;;;;;;4387352;32;318878;-79
2024/01/06 06:42:01;;;;;;;162.33;97.03;;;;;;;;;;4396601;32;319207;-79
2024/01/06 06:44:30;;;;;;;205.10;117.13;;;;;;;;;;4379966;32;319291;-79
2024/01/06 06:46:58;;;;;;;181.70;111.00;;;;;;;;;;4395073;32;320279;-80
2024/01/06 06:49:24;;;;;;;191.03;111.37;;;;;;;;;;4383400;32;320498;-80
2024/01/06 06:51:52;;;;;;;186.57;106.77;;;;;;;;;;4393043;32;320263;-79
2024/01/06 06:54:19;;;;;;;177.20;105.33;;;;;;;;;;4374756;32;334903;-79
2024/01/06 06:56:46;;;;;;;168.03;99.70;;;;;;;;;;4390580;32;326823;-79
2024/01/06 06:59:14;;;;;;;155.87;95.93;;;;;;;;;;4384154;32;319275;-80
2024/01/06 07:01:43;;;;;;;166.10;98.97;;;;;;;;;;4392853;32;319706;-80
2024/01/06 07:04:10;;;;;;;148.53;97.23;;;;;;;;;;4381067;32;319882;-79
2024/01/06 07:06:38;;;;;;;163.37;94.37;;;;;;;;;;4388933;32;319362;-79
2024/01/06 07:09:06;;;;;;;173.27;106.27;;;;;;;;;;4393574;32;319408;-79
2024/01/06 07:11:33;;;;;;;195.63;118.50;;;;;;;;;;4382732;32;343218;-80
2024/01/06 07:14:01;;;;;;;212.40;121.20;;;;;;;;;;4394146;32;319634;-80
2024/01/06 07:16:30;;;;;;;224.10;133.80;;;;;;;;;;4380692;32;320113;-79
2024/01/06 07:19:02;;;;;;;230.23;136.40;;;;;;;;;;4391836;32;319750;-79
2024/01/06 07:21:28;;;;;;;261.70;147.57;;;;;;;;;;4376008;32;320342;-78
2024/01/06 07:23:56;;;;;;;243.83;138.07;;;;;;;;;;4391848;32;320645;-80
2024/01/06 07:26:26;;;;;;;222.20;135.53;;;;;;;;;;4374969;32;320390;-80
2024/01/06 07:28:52;;;;;;;240.43;138.13;;;;;;;;;;4393045;32;319774;-80
2024/01/06 07:31:19;;;;;;;213.67;134.57;;;;;;;;;;4377055;32;320414;-79
2024/01/06 07:33:49;;;;;;;237.00;142.27;;;;;;;;;;4379145;32;320402;-79
2024/01/06 07:36:19;;;;;;;233.47;141.90;;;;;;;;;;4367419;32;320531;-78
2024/01/06 07:38:46;;;;;;;238.63;140.27;;;;;;;;;;4375419;32;320315;-79
2024/01/06 07:41:13;;;;;;;217.47;136.07;;;;;;;;;;4370674;32;320389;-79
2024/01/06 07:43:41;;;;;;;199.50;127.27;;;;;;;;;;4381258;32;320442;-79
2024/01/06 07:46:09;;;;;;;226.60;133.00;;;;;;;;;;4380883;32;320671;-80
2024/01/06 07:48:37;;;;;;;213.57;133.83;;;;;;;;;;4361686;32;419817;-79
2024/01/06 07:51:06;;;;;;;233.47;144.20;;;;;;;;;;4382757;32;320301;-79
2024/01/06 07:53:33;;;;;;;228.67;142.30;;;;;;;;;;4370617;32;320784;-80
2024/01/06 07:56:01;;;;;;;266.37;161.57;;;;;;;;;;4380737;32;320141;-79
2024/01/06 07:58:28;;;;;;;295.63;175.80;;;;;;;;;;4363879;32;320250;-78
2024/01/06 08:00:57;;;;;;;302.67;182.50;;;;;;;;;;4378927;32;320510;-79
2024/01/06 08:03:26;;;;;;;240.77;150.77;;;;;;;;;;4369947;32;321072;-79
2024/01/06 08:05:54;;;;;;;262.47;162.80;;;;;;;;;;4377263;32;320223;-80
2024/01/06 08:08:24;;;;;;;249.40;154.10;;;;;;;;;;4363829;32;319688;-79
2024/01/06 08:10:51;;;;;;;250.53;152.73;;;;;;;;;;4380018;32;320594;-79
2024/01/06 08:13:19;;;;;;;244.27;146.60;;;;;;;;;;4370979;32;320346;-79
2024/01/06 08:15:46;;;;;;;224.43;139.30;;;;;;;;;;4396342;32;320423;-79
2024/01/06 08:18:14;;;;;;;232.80;142.03;;;;;;;;;;4386892;32;320328;-79
2024/01/06 08:20:42;;;;;;;229.57;146.83;;;;;;;;;;4391899;32;320912;-79
2024/01/06 08:23:11;;;;;;;234.50;142.83;;;;;;;;;;4398032;32;319977;-80
2024/01/06 08:25:43;;;;;;;220.50;134.30;;;;;;;;;;4385080;32;419309;-79
2024/01/06 08:28:12;;;;;;;180.23;109.83;;;;;;;;;;4389576;32;320799;-79
2024/01/06 08:30:42;;;;;;;162.17;98.20;;;;;;;;;;4387089;32;320048;-79
2024/01/06 08:33:09;;;;;;;172.30;106.30;;;;;;;;;;4385630;32;319410;-79
2024/01/06 08:35:40;;;;;;;182.90;107.97;;;;;;;;;;4355019;32;419591;-79
2024/01/06 08:38:06;;;;;;;174.10;105.63;;;;;;;;;;4395235;32;318768;-79
2024/01/06 08:40:34;;;;;;;211.43;131.20;;;;;;;;;;4377347;32;320825;-79
2024/01/06 08:43:03;;;;;;;240.60;149.60;;;;;;;;;;4394549;32;320391;-79
2024/01/06 08:45:30;;;;;;;215.83;135.83;;;;;;;;;;4386234;32;320589;-79
2024/01/06 08:47:57;;;;;;;217.20;131.03;;;;;;;;;;4395238;32;319878;-80
2024/01/06 08:50:26;;;;;;;215.13;141.13;;;;;;;;;;4378148;32;320613;-80
2024/01/06 08:52:54;;;;;;;220.83;141.27;;;;;;;;;;4394969;32;318455;-80
2024/01/06 08:55:21;;;;;;;221.47;143.40;;;;;;;;;;4387276;32;319847;-80
2024/01/06 08:57:48;;;;;;;219.10;140.13;;;;;;;;;;4394743;32;320543;-80
2024/01/06 09:00:21;;;;;;;173.43;115.87;;;;;;;;;;4385617;32;319701;-80
2024/01/06 09:02:49;;;;;;;160.77;98.03;;;;;;;;;;4394439;32;320440;-79
2024/01/06 09:05:15;;;;;;;105.93;72.53;;;;;;;;;;4387220;32;319304;-78
2024/01/06 09:07:49;;;;;;;108.10;72.27;;;;;;;;;;4394618;32;319548;-78
2024/01/06 09:10:19;;;;;;;126.30;79.50;;;;;;;;;;4384848;32;318927;-80
2024/01/06 09:12:46;;;;;;;155.07;100.57;;;;;;;;;;4390275;32;317966;-79
2024/01/06 09:15:12;;;;;;;177.40;112.67;;;;;;;;;;4384621;32;319508;-79
2024/01/06 09:17:41;;;;;;;165.07;110.03;;;;;;;;;;4393211;32;343684;-80
2024/01/06 09:20:10;;;;;;;167.60;111.20;;;;;;;;;;4394361;32;319909;-80
2024/01/06 09:22:37;;;;;;;171.37;110.40;;;;;;;;;;4371504;32;419595;-80
2024/01/06 09:25:06;;;;;;;210.37;130.00;;;;;;;;;;4396250;32;319846;-80
2024/01/06 09:27:33;;;;;;;191.93;118.00;;;;;;;;;;4385258;32;328220;-79
2024/01/06 09:30:01;;;;;;;199.43;123.17;;;;;;;;;;4396442;32;334143;-79
2024/01/06 09:32:29;;;;;;;197.53;118.20;;;;;;;;;;4366058;32;319620;-80
2024/01/06 09:35:02;;;;;;;192.17;112.80;;;;;;;;;;4377132;32;324099;-79
2024/01/06 09:37:31;;;;;;;164.43;103.40;;;;;;;;;;4367602;32;319831;-79
2024/01/06 09:39:58;;;;;;;163.27;104.00;;;;;;;;;;4378750;32;320014;-78
2024/01/06 09:42:26;;;;;;;171.77;105.83;;;;;;;;;;4361048;32;320021;-78
2024/01/06 09:44:54;;;;;;;160.93;103.23;;;;;;;;;;4377974;32;318755;-80
2024/01/06 09:47:23;;;;;;;172.67;104.40;;;;;;;;;;4368530;32;320307;-78
2024/01/06 09:49:51;;;;;;;169.07;105.83;;;;;;;;;;4378538;32;320601;-78
2024/01/06 09:52:27;;;;;;;162.57;107.07;;;;;;;;;;4366030;32;320211;-79
2024/01/06 09:54:55;;;;;;;174.77;112.10;;;;;;;;;;4378244;32;318527;-78
2024/01/06 09:57:24;;;;;;;165.97;108.77;;;;;;;;;;4369107;32;320222;-79
2024/01/06 09:59:55;;;;;;;158.43;102.93;;;;;;;;;;4379084;32;320320;-80
2024/01/06 10:02:22;;;;;;;158.63;98.30;;;;;;;;;;4365745;32;320098;-78
2024/01/06 10:04:51;;;;;;;150.23;97.13;;;;;;;;;;4379607;32;319461;-79
2024/01/06 10:07:19;;;;;;;145.87;87.13;;;;;;;;;;4370967;32;318443;-78
2024/01/06 10:09:47;;;;;;;135.57;90.00;;;;;;;;;;4397986;32;318806;-80
2024/01/06 10:12:15;;;;;;;132.40;86.60;;;;;;;;;;4385038;32;319422;-79
2024/01/06 10:14:42;;;;;;;180.70;105.00;;;;;;;;;;4385647;32;318913;-79
2024/01/06 10:17:08;;;;;;;171.53;105.80;;;;;;;;;;4384686;32;319772;-79
2024/01/06 10:19:38;;;;;;;167.43;104.83;;;;;;;;;;4358169;32;419401;-80
2024/01/06 10:22:06;;;;;;;167.23;105.37;;;;;;;;;;4395430;32;319915;-80
2024/01/06 10:24:38;;;;;;;162.77;105.53;;;;;;;;;;4377147;32;355864;-80
2024/01/06 10:27:09;;;;;;;173.57;110.90;;;;;;;;;;4393320;32;320301;-80
2024/01/06 10:29:37;;;;;;;174.70;113.17;;;;;;;;;;4382396;32;419132;-80
2024/01/06 10:32:06;;;;;;;189.03;117.57;;;;;;;;;;4387772;32;318599;-79
2024/01/06 10:34:32;;;;;;;209.77;127.93;;;;;;;;;;4361331;32;319913;-79
2024/01/06 10:37:01;;;;;;;191.10;121.40;;;;;;;;;;4381319;32;356443;-79
2024/01/06 10:39:32;;;;;;;192.10;120.83;;;;;;;;;;4367113;32;320020;-79
2024/01/06 10:42:00;;;;;;;183.23;114.53;;;;;;;;;;4392633;32;318797;-79
2024/01/06 10:44:31;;;;;;;175.73;115.80;;;;;;;;;;4367169;32;320987;-79
2024/01/06 10:47:01;;;;;;;182.60;114.87;;;;;;;;;;4384461;32;320329;-79
2024/01/06 10:49:29;;;;;;;160.10;108.20;;;;;;;;;;4372716;32;319689;-78
2024/01/06 10:51:59;;;;;;;161.37;100.47;;;;;;;;;;4382141;32;324969;-80
2024/01/06 10:54:28;;;;;;;138.73;87.23;;;;;;;;;;4363727;32;319642;-78
2024/01/06 10:56:58;;;;;;;113.27;72.40;;;;;;;;;;4380013;32;319382;-79
2024/01/06 10:59:33;;;;;;;84.70;59.90;;;;;;;;;;4371158;32;319248;-79
2024/01/06 11:02:02;;;;;;;91.07;63.53;;;;;;;;;;4380472;32;318285;-79
2024/01/06 11:04:31;;;;;;;108.60;67.63;;;;;;;;;;4381821;32;318339;-79
2024/01/06 11:06:58;;;;;;;115.13;75.60;;;;;;;;;;4398133;32;319387;-80
2024/01/06 11:09:34;;;;;;;122.83;81.50;;;;;;;;;;4387460;32;319439;-80
2024/01/06 11:12:01;;;;;;;133.57;85.10;;;;;;;;;;4396696;32;318795;-79
2024/01/06 11:14:29;;;;;;;165.17;104.03;;;;;;;;;;4381266;32;318612;-79
2024/01/06 11:16:58;;;;;;;183.90;111.30;;;;;;;;;;4399854;32;320696;-79
2024/01/06 11:19:45;;;;;;;163.57;106.80;;;;;;;;;;4389829;32;319944;-79
2024/01/06 11:22:26;;;;;;;210.23;128.53;;;;;;;;;;4388197;32;319955;-78
2024/01/06 11:24:55;;;;;;;197.03;122.40;;;;;;;;;;4398236;32;320158;-79
2024/01/06 11:27:26;;;;;;;190.30;122.30;;;;;;;;;;4388507;32;320080;-79
2024/01/06 11:29:56;;;;;;;196.30;119.00;;;;;;;;;;4398785;32;320672;-81
2024/01/06 11:32:29;;;;;;;174.43;114.20;;;;;;;;;;4370335;32;329397;-81
2024/01/06 11:35:06;;;;;;;165.03;110.77;;;;;;;;;;4390375;32;320531;-81
2024/01/06 11:37:52;;;;;;;163.63;107.17;;;;;;;;;;4379274;32;320250;-79
2024/01/06 11:40:33;;;;;;;136.77;92.30;;;;;;;;;;4381076;32;320310;-79
2024/01/06 11:43:03;;;;;;;141.20;89.53;;;;;;;;;;4396917;32;319322;-80
2024/01/06 11:45:33;;;;;;;118.43;71.47;;;;;;;;;;4385425;32;319438;-79
2024/01/06 11:48:03;;;;;;;111.17;70.03;;;;;;;;;;4397336;32;318387;-79
2024/01/06 11:50:31;;;;;;;102.77;67.17;;;;;;;;;;4378075;32;319032;-80
2024/01/06 11:53:00;;;;;;;110.60;69.60;;;;;;;;;;4397606;32;337188;-80
2024/01/06 11:55:31;;;;;;;150.37;90.97;;;;;;;;;;4384142;32;319292;-79
2024/01/06 11:58:01;;;;;;;63.17;43.10;;;;;;;;;;4397160;32;318656;-81
2024/01/06 12:00:31;;;;;;;118.80;74.33;;;;;;;;;;4368314;32;318062;-79
2024/01/06 12:03:01;;;;;;;98.50;63.27;;;;;;;;;;4390851;32;319447;-78
2024/01/06 12:05:29;;;;;;;93.77;57.47;;;;;;;;;;4372316;32;318795;-78
2024/01/06 12:07:58;;;;;;;93.33;57.20;;;;;;;;;;4394332;32;317567;-78
2024/01/06 12:10:27;;;;;;;89.97;59.73;;;;;;;;;;4377291;32;318156;-78
2024/01/06 12:13:01;;;;;;;89.07;56.60;;;;;;;;;;4387313;32;316635;-78
2024/01/06 12:15:31;;;;;;;92.43;59.50;;;;;;;;;;4381866;32;317929;-78
2024/01/06 12:18:05;;;;;;;116.67;68.93;;;;;;;;;;4382207;32;317628;-78
2024/01/06 12:20:33;;;;;;;100.97;63.10;;;;;;;;;;4382049;32;319039;-78
2024/01/06 12:23:00;;;;;;;110.27;70.37;;;;;;;;;;4393567;32;328776;-77
2024/01/06 12:25:33;;;;;;;120.13;74.53;;;;;;;;;;4377396;32;318384;-78
2024/01/06 12:28:02;;;;;;;135.57;86.83;;;;;;;;;;4395658;32;318826;-77
2024/01/06 12:30:30;;;;;;;143.00;95.70;;;;;;;;;;4376473;32;319042;-77
2024/01/06 12:32:59;;;;;;;169.63;105.43;;;;;;;;;;4380490;32;319336;-77
2024/01/06 12:35:27;;;;;;;168.13;104.30;;;;;;;;;;4377276;32;322432;-77
2024/01/06 12:37:55;;;;;;;242.83;139.50;;;;;;;;;;4393046;32;319332;-79
2024/01/06 12:40:24;;;;;;;171.10;108.90;;;;;;;;;;4374470;32;319811;-78
2024/01/06 12:42:52;;;;;;;147.80;95.97;;;;;;;;;;4384259;32;320023;-78
2024/01/06 12:45:20;;;;;;;143.27;90.03;;;;;;;;;;4385566;32;319375;-78
2024/01/06 12:47:47;;;;;;;112.60;74.90;;;;;;;;;;4380514;32;319502;-77
2024/01/06 12:50:15;;;;;;;123.10;78.43;;;;;;;;;;4376658;32;350225;-77
2024/01/06 12:52:46;;;;;;;137.50;85.33;;;;;;;;;;4378361;32;319892;-78
2024/01/06 12:55:13;;;;;;;133.40;88.23;;;;;;;;;;4380639;32;360003;-78
2024/01/06 12:57:39;;;;;;;172.73;106.53;;;;;;;;;;4392328;32;320435;-78
2024/01/06 13:00:11;;;;;;;169.17;108.70;;;;;;;;;;4394387;32;321343;-78
2024/01/06 13:02:40;;;;;;;160.80;105.87;;;;;;;;;;4373807;32;420604;-79
2024/01/06 13:05:08;;;;;;;152.97;94.30;;;;;;;;;;4391232;32;320896;-79
2024/01/06 13:07:35;;;;;;;137.90;85.80;;;;;;;;;;4373710;32;419387;-78
2024/01/06 13:10:06;;;;;;;237.93;166.87;;;;;;;;;;4376086;32;320263;-81
2024/01/06 13:12:33;;;;;;;137.93;88.57;;;;;;;;;;4387948;32;320563;-80
2024/01/06 13:15:00;;;;;;;143.73;90.47;;;;;;;;;;4374197;32;320340;-79
2024/01/06 13:17:27;;;;;;;126.23;86.13;;;;;;;;;;4387627;32;320387;-80
2024/01/06 13:19:56;;;;;;;115.87;77.17;;;;;;;;;;4381855;32;320254;-79
2024/01/06 13:22:22;;;;;;;120.60;78.40;;;;;;;;;;4392270;32;319554;-79
2024/01/06 13:24:50;;;;;;;117.63;78.70;;;;;;;;;;4392577;32;320291;-80
2024/01/06 13:27:20;;;;;;;147.63;87.97;;;;;;;;;;4349280;32;420976;-81
2024/01/06 13:29:48;;;;;;;115.03;76.67;;;;;;;;;;4382387;32;319346;-80
2024/01/06 13:32:17;;;;;;;117.37;76.57;;;;;;;;;;4380361;32;319447;-79
2024/01/06 13:34:45;;;;;;;118.03;76.47;;;;;;;;;;4389894;32;320120;-79
2024/01/06 13:37:13;;;;;;;122.37;76.47;;;;;;;;;;4367429;32;320335;-78
2024/01/06 13:39:39;;;;;;;117.33;74.83;;;;;;;;;;4376347;32;320787;-80
2024/01/06 13:42:07;;;;;;;119.77;77.93;;;;;;;;;;4373236;32;319418;-79
2024/01/06 13:44:35;;;;;;;91.30;62.30;;;;;;;;;;4368924;32;320444;-81
2024/01/06 13:47:03;;;;;;;108.50;69.67;;;;;;;;;;4388765;32;319106;-79
2024/01/06 13:49:33;;;;;;;27.77;16.20;;;;;;;;;;4385956;32;320447;-79
2024/01/06 13:52:02;;;;;;;16.53;11.13;;;;;;;;;;4393577;32;332180;-81
2024/01/06 13:54:29;;;;;;;50.70;33.67;;;;;;;;;;4375150;32;318575;-78